createdAt,value
2023-01-09T00:01:46.293Z,6.00
2023-01-09T00:05:28.237Z,5.90
2023-01-09T00:09:11.211Z,5.90
2023-01-09T00:12:53.210Z,5.80
2023-01-09T00:16:35.150Z,5.80
2023-01-09T00:20:17.498Z,5.80
2023-01-09T00:23:59.637Z,5.80
2023-01-09T00:27:41.741Z,5.80
2023-01-09T00:31:24.058Z,5.80
2023-01-09T00:35:07.814Z,5.70
2023-01-09T00:38:50.510Z,5.70
2023-01-09T00:42:35.376Z,5.70
2023-01-09T00:46:21.176Z,5.70
2023-01-09T00:50:08.281Z,5.70
2023-01-09T00:53:51.043Z,5.70
2023-01-09T00:57:33.229Z,5.70
2023-01-09T01:01:15.369Z,5.60
2023-01-09T01:05:15.743Z,5.60
2023-01-09T01:08:57.718Z,5.60
2023-01-09T01:12:40.493Z,5.60
2023-01-09T01:16:22.464Z,5.60
2023-01-09T01:20:06.594Z,5.60
2023-01-09T01:23:48.591Z,5.60
2023-01-09T01:27:30.791Z,5.70
2023-01-09T01:31:18.248Z,5.70
2023-01-09T01:35:00.202Z,5.80
2023-01-09T01:38:42.203Z,5.90
2023-01-09T01:42:24.417Z,6.00
2023-01-09T01:46:06.558Z,6.00
2023-01-09T01:49:49.384Z,6.00
2023-01-09T01:53:38.957Z,6.10
2023-01-09T01:57:21.032Z,6.20
2023-01-09T02:01:03.371Z,6.30
2023-01-09T02:04:46.373Z,6.40
2023-01-09T02:08:28.488Z,6.40
2023-01-09T02:12:27.804Z,6.40
2023-01-09T02:16:24.766Z,6.40
2023-01-09T02:20:35.065Z,6.40
2023-01-09T02:24:26.241Z,6.50
2023-01-09T02:28:24.009Z,6.50
2023-01-09T02:32:38.320Z,6.60
2023-01-09T02:36:31.991Z,6.60
2023-01-09T02:40:26.235Z,6.60
2023-01-09T02:44:29.408Z,6.60
2023-01-09T02:48:12.375Z,6.60
2023-01-09T02:52:32.395Z,6.60
2023-01-09T02:56:31.975Z,6.60
2023-01-09T03:00:31.187Z,6.50
2023-01-09T03:04:47.186Z,6.40
2023-01-09T03:08:40.963Z,6.50
2023-01-09T03:12:27.167Z,6.50
2023-01-09T03:16:12.108Z,6.40
2023-01-09T03:19:55.679Z,6.40
2023-01-09T03:24:01.556Z,6.40
2023-01-09T03:27:43.445Z,6.40
2023-01-09T03:31:25.867Z,6.50
2023-01-09T03:35:08.274Z,6.50
2023-01-09T03:38:51.530Z,6.50
2023-01-09T03:42:33.513Z,6.50
2023-01-09T03:46:17.285Z,6.50
2023-01-09T03:49:59.322Z,6.50
2023-01-09T03:53:41.929Z,6.50
2023-01-09T03:57:24.410Z,6.50
2023-01-09T04:01:09.688Z,6.50
2023-01-09T04:04:51.685Z,6.50
2023-01-09T04:08:33.894Z,6.50
2023-01-09T04:12:15.894Z,6.50
2023-01-09T04:15:57.947Z,6.60
2023-01-09T04:19:40.005Z,6.60
2023-01-09T04:23:22.125Z,6.60
2023-01-09T04:27:04.120Z,6.60
2023-01-09T04:30:46.274Z,6.60
2023-01-09T04:34:28.233Z,6.50
2023-01-09T04:38:10.245Z,6.60
2023-01-09T04:41:54.738Z,6.60
2023-01-09T04:45:36.868Z,6.50
2023-01-09T04:49:19.220Z,6.40
2023-01-09T04:53:01.531Z,6.30
2023-01-09T04:56:43.605Z,6.30
2023-01-09T05:00:25.749Z,6.30
2023-01-09T05:04:07.768Z,6.20
2023-01-09T05:07:50.000Z,6.10
2023-01-09T05:11:31.905Z,6.10
2023-01-09T05:15:13.972Z,6.00
2023-01-09T05:18:57.283Z,6.00
2023-01-09T05:22:39.322Z,5.90
2023-01-09T05:26:24.217Z,6.00
2023-01-09T05:30:06.739Z,6.10
2023-01-09T05:33:51.668Z,6.10
2023-01-09T05:37:33.713Z,6.20
2023-01-09T05:41:15.687Z,6.20
2023-01-09T05:44:57.719Z,6.10
2023-01-09T05:48:42.136Z,6.00
2023-01-09T05:52:24.988Z,5.90
2023-01-09T05:56:07.233Z,5.90
2023-01-09T05:59:49.507Z,5.90
2023-01-09T06:03:31.504Z,5.90
2023-01-09T06:07:17.832Z,6.00
2023-01-09T06:11:01.968Z,6.00
2023-01-09T06:14:44.069Z,6.00
2023-01-09T06:18:26.035Z,6.00
2023-01-09T06:22:08.073Z,6.00
2023-01-09T06:25:50.107Z,6.00
2023-01-09T06:29:32.073Z,6.10
2023-01-09T06:33:14.005Z,6.10
2023-01-09T06:36:56.122Z,6.10
2023-01-09T06:40:38.309Z,6.10
2023-01-09T06:44:20.307Z,6.20
2023-01-09T06:48:02.323Z,6.20
2023-01-09T06:51:44.332Z,6.20
2023-01-09T06:55:26.526Z,6.20
2023-01-09T06:59:08.504Z,6.20
2023-01-09T07:02:50.452Z,6.20
2023-01-09T07:06:33.458Z,6.30
2023-01-09T07:10:15.692Z,6.30
2023-01-09T07:13:57.839Z,6.30
2023-01-09T07:17:39.864Z,6.30
2023-01-09T07:21:22.015Z,6.30
2023-01-09T07:25:04.305Z,6.40
2023-01-09T07:28:46.222Z,6.40
2023-01-09T07:32:28.292Z,6.40
2023-01-09T07:36:11.186Z,6.40
2023-01-09T07:39:53.118Z,6.50
2023-01-09T07:43:35.214Z,6.50
2023-01-09T07:47:17.169Z,6.50
2023-01-09T07:50:59.440Z,6.40
2023-01-09T07:54:41.743Z,6.40
2023-01-09T07:58:23.754Z,6.40
2023-01-09T08:02:07.309Z,6.40
2023-01-09T08:05:51.484Z,6.40
2023-01-09T08:09:33.664Z,6.40
2023-01-09T08:13:15.866Z,6.30
2023-01-09T08:16:57.913Z,6.30
2023-01-09T08:20:39.833Z,6.30
2023-01-09T08:24:21.781Z,6.30
2023-01-09T08:28:03.788Z,6.30
2023-01-09T08:31:45.856Z,6.30
2023-01-09T08:35:27.887Z,6.30
2023-01-09T08:39:10.617Z,6.40
2023-01-09T08:43:11.149Z,6.40
2023-01-09T08:47:08.485Z,6.50
2023-01-09T08:50:51.040Z,6.50
2023-01-09T08:54:33.645Z,6.50
2023-01-09T08:58:15.616Z,6.60
2023-01-09T09:01:58.391Z,6.60
2023-01-09T09:05:40.514Z,6.60
2023-01-09T09:09:22.422Z,6.60
2023-01-09T09:13:04.668Z,6.60
2023-01-09T09:16:46.586Z,6.70
2023-01-09T09:20:31.603Z,6.90
2023-01-09T09:24:13.681Z,7.00
2023-01-09T09:28:01.288Z,7.40
2023-01-09T09:31:43.428Z,7.90
2023-01-09T09:35:25.462Z,8.10
2023-01-09T09:39:08.686Z,7.80
2023-01-09T09:43:30.451Z,7.70
2023-01-09T09:47:43.586Z,8.30
2023-01-09T09:51:53.447Z,9.10
2023-01-09T09:55:38.597Z,9.00
2023-01-09T09:59:26.809Z,8.70
2023-01-09T10:03:33.248Z,8.30
2023-01-09T10:07:24.760Z,8.10
2023-01-09T10:11:17.223Z,7.90
2023-01-09T10:15:21.222Z,7.80
2023-01-09T10:19:19.539Z,7.80
2023-01-09T10:23:23.605Z,7.70
2023-01-09T10:27:25.155Z,7.60
2023-01-09T10:31:42.333Z,7.60
2023-01-09T10:35:47.954Z,7.60
2023-01-09T10:39:52.630Z,7.60
2023-01-09T10:44:10.044Z,7.70
2023-01-09T10:48:01.014Z,7.70
2023-01-09T10:52:15.835Z,7.80
2023-01-09T10:56:45.247Z,7.80
2023-01-09T11:00:27.731Z,7.80
2023-01-09T11:04:29.681Z,7.80
2023-01-09T11:12:34.202Z,7.80
2023-01-09T11:16:47.379Z,7.80
2023-01-09T11:20:30.532Z,7.70
2023-01-09T11:28:29.583Z,7.80
2023-01-09T11:32:48.547Z,7.80
2023-01-09T11:36:31.471Z,7.90
2023-01-09T11:40:33.787Z,7.90
2023-01-09T11:44:16.320Z,7.90
2023-01-09T11:48:29.726Z,7.90
2023-01-09T11:52:16.652Z,7.80
2023-01-09T12:00:04.267Z,7.70
2023-01-09T12:04:32.410Z,7.60
2023-01-09T12:09:00.725Z,7.50
2023-01-09T12:13:28.617Z,7.40
2023-01-09T12:39:05.476Z,7.00
2023-01-09T12:47:27.180Z,7.00
2023-01-09T12:51:38.431Z,7.00
2023-01-09T12:59:47.431Z,7.10
2023-01-09T13:12:13.116Z,7.30
2023-01-09T13:25:15.201Z,7.20
2023-01-09T13:29:03.327Z,7.20
2023-01-09T13:33:13.175Z,7.20
2023-01-09T13:36:57.809Z,7.20
2023-01-09T13:45:51.469Z,7.30
2023-01-09T13:53:49.897Z,7.20
2023-01-09T13:58:06.129Z,7.20
2023-01-09T14:01:48.277Z,7.30
2023-01-09T14:05:54.386Z,7.40
2023-01-09T14:09:37.786Z,7.40
2023-01-09T14:14:06.179Z,7.50
2023-01-09T14:18:17.183Z,7.50
2023-01-09T14:22:00.815Z,7.70
2023-01-09T14:26:29.084Z,7.80
2023-01-09T14:30:57.236Z,7.90
2023-01-09T14:35:11.142Z,8.00
2023-01-09T14:38:54.176Z,8.00
2023-01-09T14:43:05.138Z,8.00
2023-01-09T14:46:49.653Z,8.00
2023-01-09T14:50:59.749Z,8.10
2023-01-09T14:54:43.862Z,8.20
2023-01-09T14:59:12.019Z,8.10
2023-01-09T15:03:43.280Z,8.10
2023-01-09T15:07:55.172Z,8.10
2023-01-09T15:11:39.847Z,8.00
2023-01-09T15:15:43.961Z,8.00
2023-01-09T15:19:26.526Z,8.00
2023-01-09T15:23:33.006Z,8.00
2023-01-09T15:27:15.893Z,8.00
2023-01-09T15:31:29.724Z,8.10
2023-01-09T15:35:14.700Z,8.10
2023-01-09T15:43:53.605Z,8.00
2023-01-09T15:47:35.948Z,7.90
2023-01-09T16:00:01.844Z,7.70
2023-01-09T16:08:03.889Z,7.60
2023-01-09T16:12:26.151Z,7.50
2023-01-09T16:16:33.030Z,7.40
2023-01-09T16:30:13.156Z,7.20
2023-01-09T16:34:06.917Z,7.10
2023-01-09T16:37:48.906Z,6.90
2023-01-09T16:41:49.791Z,6.80
2023-01-09T16:45:34.935Z,6.70
2023-01-09T16:49:18.818Z,6.60
2023-01-09T16:53:03.309Z,6.60
2023-01-09T16:56:49.401Z,6.50
2023-01-09T17:00:32.525Z,6.50
2023-01-09T17:04:17.454Z,6.40
2023-01-09T17:07:59.585Z,6.40
2023-01-09T17:11:41.680Z,6.40
2023-01-09T17:15:23.684Z,6.30
2023-01-09T17:19:05.792Z,6.30
2023-01-09T17:22:47.733Z,6.30
2023-01-09T17:26:48.083Z,6.20
2023-01-09T17:30:30.042Z,6.20
2023-01-09T17:34:11.953Z,6.10
2023-01-09T17:37:54.075Z,6.10
2023-01-09T17:41:36.055Z,6.10
2023-01-09T17:45:20.929Z,6.10
2023-01-09T17:49:04.705Z,6.00
2023-01-09T17:52:47.814Z,6.10
2023-01-09T17:56:33.225Z,6.00
2023-01-09T18:00:28.834Z,6.00
2023-01-09T18:04:11.221Z,5.90
2023-01-09T18:07:53.583Z,5.90
2023-01-09T18:11:35.656Z,5.90
2023-01-09T18:15:17.948Z,5.90
2023-01-09T18:19:01.320Z,5.90
2023-01-09T18:22:43.402Z,5.80
2023-01-09T18:26:25.500Z,5.80
2023-01-09T18:30:08.314Z,5.80
2023-01-09T18:33:52.408Z,5.80
2023-01-09T18:37:36.638Z,5.70
2023-01-09T18:41:20.788Z,5.70
2023-01-09T18:45:02.903Z,5.80
2023-01-09T18:48:44.854Z,5.90
2023-01-09T18:52:26.842Z,6.00
2023-01-09T18:56:08.830Z,6.10
2023-01-09T18:59:51.038Z,6.20
2023-01-09T19:03:33.062Z,6.10
2023-01-09T19:07:15.321Z,6.00
2023-01-09T19:10:57.537Z,5.90
2023-01-09T19:14:39.673Z,5.80
2023-01-09T19:18:22.290Z,5.80
2023-01-09T19:22:04.571Z,5.70
2023-01-09T19:25:49.746Z,5.60
2023-01-09T19:29:31.854Z,5.60
2023-01-09T19:33:13.911Z,5.50
2023-01-09T19:36:56.032Z,5.50
2023-01-09T19:40:41.039Z,5.40
2023-01-09T19:44:23.048Z,5.40
2023-01-09T19:48:05.575Z,5.40
2023-01-09T19:51:47.780Z,5.40
2023-01-09T19:55:29.707Z,5.40
2023-01-09T19:59:15.995Z,5.40
2023-01-09T20:03:08.845Z,5.30
2023-01-09T20:06:51.349Z,5.20
2023-01-09T20:10:33.998Z,5.20
2023-01-09T20:14:19.162Z,5.10
2023-01-09T20:18:02.138Z,5.10
2023-01-09T20:22:25.984Z,5.20
2023-01-09T20:26:07.968Z,5.20
2023-01-09T20:29:59.409Z,5.20
2023-01-09T20:33:42.691Z,5.10
2023-01-09T20:37:25.651Z,5.10
2023-01-09T20:41:23.042Z,5.00
2023-01-09T20:45:06.995Z,5.00
2023-01-09T20:48:49.907Z,4.90
2023-01-09T20:52:32.033Z,4.80
2023-01-09T20:56:19.548Z,4.90
2023-01-09T21:00:05.087Z,4.90
2023-01-09T21:03:47.304Z,4.80
2023-01-09T21:07:29.708Z,4.80
2023-01-09T21:11:12.268Z,4.80
2023-01-09T21:14:55.214Z,4.70
2023-01-09T21:18:40.675Z,4.70
2023-01-09T21:22:22.794Z,4.60
2023-01-09T21:26:17.003Z,4.70
2023-01-09T21:29:59.211Z,4.70
2023-01-09T21:33:41.625Z,4.70
2023-01-09T21:37:23.778Z,4.80
2023-01-09T21:41:24.175Z,4.80
2023-01-09T21:45:28.876Z,4.80
2023-01-09T21:49:13.815Z,4.80
2023-01-09T21:52:56.166Z,4.80
2023-01-09T21:56:38.343Z,4.70
2023-01-09T22:00:20.824Z,4.60
2023-01-09T22:04:03.873Z,4.50
2023-01-09T22:07:46.192Z,4.40
2023-01-09T22:11:29.229Z,4.40
2023-01-09T22:15:11.588Z,4.30
2023-01-09T22:18:54.988Z,4.30
2023-01-09T22:22:37.036Z,4.30
2023-01-09T22:26:19.225Z,4.40
2023-01-09T22:30:02.000Z,4.30
2023-01-09T22:33:48.409Z,4.30
2023-01-09T22:37:30.432Z,4.20
2023-01-09T22:41:12.889Z,4.20
2023-01-09T22:44:55.003Z,4.10
2023-01-09T22:48:37.215Z,4.10
2023-01-09T22:52:19.470Z,4.00
2023-01-09T22:56:04.032Z,3.90
2023-01-09T22:59:48.632Z,3.90
2023-01-09T23:03:30.851Z,3.80
2023-01-09T23:07:13.008Z,3.70
2023-01-09T23:11:04.637Z,3.70
2023-01-09T23:14:46.705Z,3.60
2023-01-09T23:18:29.179Z,3.70
2023-01-09T23:22:12.586Z,3.70
2023-01-09T23:25:59.526Z,3.70
2023-01-09T23:29:41.670Z,3.70
2023-01-09T23:33:26.389Z,3.70
2023-01-09T23:37:10.074Z,3.70
2023-01-09T23:40:59.968Z,3.70
2023-01-09T23:44:43.309Z,3.70
2023-01-09T23:48:30.654Z,3.80
2023-01-09T23:52:15.657Z,3.80
2023-01-09T23:55:57.970Z,3.80
2023-01-09T23:59:39.984Z,3.90
